sensor_id;sensor_type;location;lat;lon;timestamp;P1;durP1;ratioP1;P2;durP2;ratioP2
61085;SDS011;46967;48.876;2.136;2023-12-20T00:01:18;3.30;;;2.10;;
61085;SDS011;46967;48.876;2.136;2023-12-20T00:03:43;8.18;;;2.47;;
61085;SDS011;46967;48.876;2.136;2023-12-20T00:06:09;4.43;;;1.80;;
61085;SDS011;46967;48.876;2.136;2023-12-20T00:08:34;3.78;;;1.60;;
61085;SDS011;46967;48.876;2.136;2023-12-20T00:10:59;2.78;;;1.30;;
61085;SDS011;46967;48.876;2.136;2023-12-20T00:13:25;3.20;;;1.00;;
61085;SDS011;46967;48.876;2.136;2023-12-20T00:15:50;5.18;;;1.40;;
61085;SDS011;46967;48.876;2.136;2023-12-20T00:18:15;5.05;;;1.20;;
61085;SDS011;46967;48.876;2.136;2023-12-20T00:20:41;3.72;;;1.10;;
61085;SDS011;46967;48.876;2.136;2023-12-20T00:23:06;2.35;;;0.82;;
61085;SDS011;46967;48.876;2.136;2023-12-20T00:25:32;6.28;;;1.23;;
61085;SDS011;46967;48.876;2.136;2023-12-20T00:27:58;7.43;;;1.83;;
61085;SDS011;46967;48.876;2.136;2023-12-20T00:30:23;4.85;;;0.95;;
61085;SDS011;46967;48.876;2.136;2023-12-20T00:32:49;5.13;;;1.67;;
61085;SDS011;46967;48.876;2.136;2023-12-20T00:35:15;3.13;;;0.95;;
61085;SDS011;46967;48.876;2.136;2023-12-20T00:37:41;6.18;;;1.05;;
61085;SDS011;46967;48.876;2.136;2023-12-20T00:40:07;5.35;;;1.50;;
61085;SDS011;46967;48.876;2.136;2023-12-20T00:42:33;6.35;;;1.15;;
61085;SDS011;46967;48.876;2.136;2023-12-20T00:44:58;5.90;;;0.90;;
61085;SDS011;46967;48.876;2.136;2023-12-20T00:47:24;6.70;;;1.02;;
61085;SDS011;46967;48.876;2.136;2023-12-20T00:49:49;7.05;;;1.05;;
61085;SDS011;46967;48.876;2.136;2023-12-20T00:52:15;5.10;;;0.80;;
61085;SDS011;46967;48.876;2.136;2023-12-20T00:54:42;3.60;;;0.90;;
61085;SDS011;46967;48.876;2.136;2023-12-20T00:57:07;8.30;;;1.23;;
61085;SDS011;46967;48.876;2.136;2023-12-20T00:59:32;8.38;;;1.13;;
61085;SDS011;46967;48.876;2.136;2023-12-20T01:01:58;6.00;;;1.27;;
61085;SDS011;46967;48.876;2.136;2023-12-20T01:04:23;6.85;;;1.20;;
61085;SDS011;46967;48.876;2.136;2023-12-20T01:06:48;7.03;;;1.15;;
61085;SDS011;46967;48.876;2.136;2023-12-20T01:09:14;7.10;;;1.08;;
61085;SDS011;46967;48.876;2.136;2023-12-20T01:11:39;2.88;;;1.10;;
61085;SDS011;46967;48.876;2.136;2023-12-20T01:14:04;6.82;;;1.20;;
61085;SDS011;46967;48.876;2.136;2023-12-20T01:16:30;7.00;;;1.13;;
61085;SDS011;46967;48.876;2.136;2023-12-20T01:18:55;6.05;;;1.40;;
61085;SDS011;46967;48.876;2.136;2023-12-20T01:21:20;4.75;;;1.60;;
61085;SDS011;46967;48.876;2.136;2023-12-20T01:23:46;6.45;;;0.90;;
61085;SDS011;46967;48.876;2.136;2023-12-20T01:26:11;6.43;;;1.90;;
61085;SDS011;46967;48.876;2.136;2023-12-20T01:28:37;4.32;;;1.02;;
61085;SDS011;46967;48.876;2.136;2023-12-20T01:31:03;6.53;;;1.10;;
61085;SDS011;46967;48.876;2.136;2023-12-20T01:33:28;4.07;;;1.10;;
61085;SDS011;46967;48.876;2.136;2023-12-20T01:35:54;6.75;;;1.10;;
61085;SDS011;46967;48.876;2.136;2023-12-20T01:38:19;11.63;;;1.45;;
61085;SDS011;46967;48.876;2.136;2023-12-20T01:40:45;4.43;;;0.82;;
61085;SDS011;46967;48.876;2.136;2023-12-20T01:43:10;7.07;;;1.27;;
61085;SDS011;46967;48.876;2.136;2023-12-20T01:45:37;6.13;;;1.00;;
61085;SDS011;46967;48.876;2.136;2023-12-20T01:48:03;7.22;;;1.00;;
61085;SDS011;46967;48.876;2.136;2023-12-20T01:50:30;4.95;;;1.10;;
61085;SDS011;46967;48.876;2.136;2023-12-20T01:52:56;6.18;;;1.90;;
61085;SDS011;46967;48.876;2.136;2023-12-20T01:55:24;5.50;;;1.60;;
61085;SDS011;46967;48.876;2.136;2023-12-20T01:57:50;7.72;;;2.15;;
61085;SDS011;46967;48.876;2.136;2023-12-20T02:00:16;6.05;;;1.40;;
61085;SDS011;46967;48.876;2.136;2023-12-20T02:02:43;4.45;;;1.20;;
61085;SDS011;46967;48.876;2.136;2023-12-20T02:05:10;7.05;;;0.85;;
61085;SDS011;46967;48.876;2.136;2023-12-20T02:07:36;6.95;;;1.52;;
61085;SDS011;46967;48.876;2.136;2023-12-20T02:10:02;3.85;;;1.05;;
61085;SDS011;46967;48.876;2.136;2023-12-20T02:12:29;6.38;;;1.17;;
61085;SDS011;46967;48.876;2.136;2023-12-20T02:14:54;14.43;;;1.42;;
61085;SDS011;46967;48.876;2.136;2023-12-20T02:17:20;10.45;;;1.05;;
61085;SDS011;46967;48.876;2.136;2023-12-20T02:19:45;6.43;;;1.88;;
61085;SDS011;46967;48.876;2.136;2023-12-20T02:22:10;8.85;;;1.15;;
61085;SDS011;46967;48.876;2.136;2023-12-20T02:24:36;8.45;;;0.90;;
61085;SDS011;46967;48.876;2.136;2023-12-20T02:27:02;7.20;;;1.20;;
61085;SDS011;46967;48.876;2.136;2023-12-20T02:29:28;3.22;;;0.95;;
61085;SDS011;46967;48.876;2.136;2023-12-20T02:31:53;7.80;;;2.15;;
61085;SDS011;46967;48.876;2.136;2023-12-20T02:34:18;4.05;;;0.90;;
61085;SDS011;46967;48.876;2.136;2023-12-20T02:36:44;8.43;;;1.10;;
61085;SDS011;46967;48.876;2.136;2023-12-20T02:39:09;6.45;;;1.00;;
61085;SDS011;46967;48.876;2.136;2023-12-20T02:41:34;6.00;;;1.30;;
61085;SDS011;46967;48.876;2.136;2023-12-20T02:44:01;5.25;;;1.25;;
61085;SDS011;46967;48.876;2.136;2023-12-20T02:46:26;3.22;;;0.95;;
61085;SDS011;46967;48.876;2.136;2023-12-20T02:48:52;6.90;;;0.93;;
61085;SDS011;46967;48.876;2.136;2023-12-20T02:51:17;6.47;;;1.30;;
61085;SDS011;46967;48.876;2.136;2023-12-20T02:53:42;4.82;;;1.00;;
61085;SDS011;46967;48.876;2.136;2023-12-20T02:56:08;4.65;;;1.20;;
61085;SDS011;46967;48.876;2.136;2023-12-20T02:58:33;7.38;;;1.30;;
61085;SDS011;46967;48.876;2.136;2023-12-20T03:00:58;8.85;;;1.50;;
61085;SDS011;46967;48.876;2.136;2023-12-20T03:03:24;5.38;;;1.15;;
61085;SDS011;46967;48.876;2.136;2023-12-20T03:05:49;8.15;;;1.10;;
61085;SDS011;46967;48.876;2.136;2023-12-20T03:08:14;9.60;;;1.42;;
61085;SDS011;46967;48.876;2.136;2023-12-20T03:10:40;6.82;;;1.20;;
61085;SDS011;46967;48.876;2.136;2023-12-20T03:13:06;3.97;;;1.02;;
61085;SDS011;46967;48.876;2.136;2023-12-20T03:15:31;8.70;;;1.25;;
61085;SDS011;46967;48.876;2.136;2023-12-20T03:17:56;10.02;;;1.40;;
61085;SDS011;46967;48.876;2.136;2023-12-20T03:20:24;4.38;;;1.20;;
61085;SDS011;46967;48.876;2.136;2023-12-20T03:22:50;3.92;;;1.02;;
61085;SDS011;46967;48.876;2.136;2023-12-20T03:25:16;4.45;;;1.17;;
61085;SDS011;46967;48.876;2.136;2023-12-20T03:27:41;6.30;;;1.33;;
61085;SDS011;46967;48.876;2.136;2023-12-20T03:30:07;8.63;;;1.40;;
61085;SDS011;46967;48.876;2.136;2023-12-20T03:32:32;8.65;;;1.25;;
61085;SDS011;46967;48.876;2.136;2023-12-20T03:34:58;6.53;;;1.48;;
61085;SDS011;46967;48.876;2.136;2023-12-20T03:37:23;9.57;;;1.48;;
61085;SDS011;46967;48.876;2.136;2023-12-20T03:39:48;5.13;;;1.20;;
61085;SDS011;46967;48.876;2.136;2023-12-20T03:42:13;5.05;;;1.10;;
61085;SDS011;46967;48.876;2.136;2023-12-20T03:44:39;6.72;;;1.10;;
61085;SDS011;46967;48.876;2.136;2023-12-20T03:47:05;8.40;;;1.13;;
61085;SDS011;46967;48.876;2.136;2023-12-20T03:49:31;11.32;;;1.15;;
61085;SDS011;46967;48.876;2.136;2023-12-20T03:51:56;4.00;;;1.40;;
61085;SDS011;46967;48.876;2.136;2023-12-20T03:54:21;5.60;;;1.73;;
61085;SDS011;46967;48.876;2.136;2023-12-20T03:56:46;7.28;;;1.40;;
61085;SDS011;46967;48.876;2.136;2023-12-20T03:59:12;4.15;;;0.88;;
61085;SDS011;46967;48.876;2.136;2023-12-20T04:01:37;7.28;;;1.48;;
61085;SDS011;46967;48.876;2.136;2023-12-20T04:04:02;7.05;;;1.33;;
61085;SDS011;46967;48.876;2.136;2023-12-20T04:06:28;5.05;;;1.02;;
61085;SDS011;46967;48.876;2.136;2023-12-20T04:08:53;7.13;;;1.33;;
61085;SDS011;46967;48.876;2.136;2023-12-20T04:11:19;7.43;;;1.20;;
61085;SDS011;46967;48.876;2.136;2023-12-20T04:13:44;6.00;;;1.20;;
61085;SDS011;46967;48.876;2.136;2023-12-20T04:16:09;9.68;;;1.58;;
61085;SDS011;46967;48.876;2.136;2023-12-20T04:18:35;5.82;;;1.40;;
61085;SDS011;46967;48.876;2.136;2023-12-20T04:21:01;6.40;;;0.85;;
61085;SDS011;46967;48.876;2.136;2023-12-20T04:23:26;6.15;;;1.30;;
61085;SDS011;46967;48.876;2.136;2023-12-20T04:25:52;7.20;;;1.20;;
61085;SDS011;46967;48.876;2.136;2023-12-20T04:28:18;5.63;;;0.98;;
61085;SDS011;46967;48.876;2.136;2023-12-20T04:30:43;6.85;;;1.15;;
61085;SDS011;46967;48.876;2.136;2023-12-20T04:33:09;4.45;;;1.00;;
61085;SDS011;46967;48.876;2.136;2023-12-20T04:35:34;5.90;;;1.20;;
61085;SDS011;46967;48.876;2.136;2023-12-20T04:37:59;9.88;;;1.42;;
61085;SDS011;46967;48.876;2.136;2023-12-20T04:40:25;8.68;;;1.10;;
61085;SDS011;46967;48.876;2.136;2023-12-20T04:42:50;6.97;;;1.33;;
61085;SDS011;46967;48.876;2.136;2023-12-20T04:45:15;8.07;;;1.20;;
61085;SDS011;46967;48.876;2.136;2023-12-20T04:47:42;8.43;;;1.02;;
61085;SDS011;46967;48.876;2.136;2023-12-20T04:50:07;6.05;;;1.10;;
61085;SDS011;46967;48.876;2.136;2023-12-20T04:52:33;7.13;;;1.08;;
61085;SDS011;46967;48.876;2.136;2023-12-20T04:54:58;5.65;;;1.30;;
61085;SDS011;46967;48.876;2.136;2023-12-20T04:57:24;6.03;;;1.48;;
61085;SDS011;46967;48.876;2.136;2023-12-20T04:59:49;6.00;;;1.40;;
61085;SDS011;46967;48.876;2.136;2023-12-20T05:02:15;5.63;;;1.70;;
61085;SDS011;46967;48.876;2.136;2023-12-20T05:04:40;5.00;;;1.27;;
61085;SDS011;46967;48.876;2.136;2023-12-20T05:07:06;11.63;;;1.85;;
61085;SDS011;46967;48.876;2.136;2023-12-20T05:09:32;8.63;;;1.70;;
61085;SDS011;46967;48.876;2.136;2023-12-20T05:11:57;6.60;;;1.33;;
61085;SDS011;46967;48.876;2.136;2023-12-20T05:14:22;3.95;;;1.10;;
61085;SDS011;46967;48.876;2.136;2023-12-20T05:16:48;6.13;;;1.75;;
61085;SDS011;46967;48.876;2.136;2023-12-20T05:19:13;8.35;;;1.67;;
61085;SDS011;46967;48.876;2.136;2023-12-20T05:21:39;8.90;;;1.77;;
61085;SDS011;46967;48.876;2.136;2023-12-20T05:24:04;8.45;;;1.50;;
61085;SDS011;46967;48.876;2.136;2023-12-20T05:26:30;5.38;;;1.40;;
61085;SDS011;46967;48.876;2.136;2023-12-20T05:28:55;8.60;;;1.30;;
61085;SDS011;46967;48.876;2.136;2023-12-20T05:31:21;8.40;;;1.67;;
61085;SDS011;46967;48.876;2.136;2023-12-20T05:33:46;8.35;;;1.75;;
61085;SDS011;46967;48.876;2.136;2023-12-20T05:36:11;6.70;;;1.40;;
61085;SDS011;46967;48.876;2.136;2023-12-20T05:38:38;5.15;;;1.00;;
61085;SDS011;46967;48.876;2.136;2023-12-20T05:41:04;6.88;;;1.33;;
61085;SDS011;46967;48.876;2.136;2023-12-20T05:43:29;7.60;;;1.52;;
61085;SDS011;46967;48.876;2.136;2023-12-20T05:45:55;9.35;;;1.38;;
61085;SDS011;46967;48.876;2.136;2023-12-20T05:48:20;10.32;;;1.92;;
61085;SDS011;46967;48.876;2.136;2023-12-20T05:50:45;9.77;;;1.98;;
61085;SDS011;46967;48.876;2.136;2023-12-20T05:53:11;9.30;;;1.73;;
61085;SDS011;46967;48.876;2.136;2023-12-20T05:55:36;7.50;;;1.75;;
61085;SDS011;46967;48.876;2.136;2023-12-20T05:58:02;5.68;;;1.30;;
61085;SDS011;46967;48.876;2.136;2023-12-20T06:00:28;5.82;;;1.40;;
61085;SDS011;46967;48.876;2.136;2023-12-20T06:02:53;7.90;;;1.40;;
61085;SDS011;46967;48.876;2.136;2023-12-20T06:05:18;9.02;;;1.80;;
61085;SDS011;46967;48.876;2.136;2023-12-20T06:07:44;6.88;;;1.33;;
61085;SDS011;46967;48.876;2.136;2023-12-20T06:10:12;7.00;;;1.30;;
61085;SDS011;46967;48.876;2.136;2023-12-20T06:12:38;11.98;;;1.48;;
61085;SDS011;46967;48.876;2.136;2023-12-20T06:15:04;10.00;;;1.55;;
61085;SDS011;46967;48.876;2.136;2023-12-20T06:17:30;13.68;;;1.98;;
61085;SDS011;46967;48.876;2.136;2023-12-20T06:19:56;7.57;;;1.35;;
61085;SDS011;46967;48.876;2.136;2023-12-20T06:22:22;11.10;;;1.55;;
61085;SDS011;46967;48.876;2.136;2023-12-20T06:24:47;9.27;;;1.50;;
61085;SDS011;46967;48.876;2.136;2023-12-20T06:27:12;7.43;;;1.02;;
61085;SDS011;46967;48.876;2.136;2023-12-20T06:29:38;8.68;;;1.77;;
61085;SDS011;46967;48.876;2.136;2023-12-20T06:32:03;11.30;;;1.90;;
61085;SDS011;46967;48.876;2.136;2023-12-20T06:34:29;7.75;;;1.30;;
61085;SDS011;46967;48.876;2.136;2023-12-20T06:36:54;19.00;;;2.20;;
61085;SDS011;46967;48.876;2.136;2023-12-20T06:39:19;7.35;;;1.30;;
61085;SDS011;46967;48.876;2.136;2023-12-20T06:41:45;7.70;;;1.52;;
61085;SDS011;46967;48.876;2.136;2023-12-20T06:44:10;7.07;;;1.63;;
61085;SDS011;46967;48.876;2.136;2023-12-20T06:46:35;10.13;;;2.17;;
61085;SDS011;46967;48.876;2.136;2023-12-20T06:49:01;14.23;;;2.67;;
61085;SDS011;46967;48.876;2.136;2023-12-20T06:51:26;5.88;;;1.17;;
61085;SDS011;46967;48.876;2.136;2023-12-20T06:53:52;6.80;;;1.40;;
61085;SDS011;46967;48.876;2.136;2023-12-20T06:56:17;7.95;;;2.47;;
61085;SDS011;46967;48.876;2.136;2023-12-20T06:58:43;7.07;;;1.52;;
61085;SDS011;46967;48.876;2.136;2023-12-20T07:01:14;4.47;;;1.65;;
61085;SDS011;46967;48.876;2.136;2023-12-20T07:03:41;9.20;;;1.58;;
61085;SDS011;46967;48.876;2.136;2023-12-20T07:06:06;7.88;;;1.73;;
61085;SDS011;46967;48.876;2.136;2023-12-20T07:08:32;8.85;;;1.98;;
61085;SDS011;46967;48.876;2.136;2023-12-20T07:10:57;9.98;;;1.83;;
61085;SDS011;46967;48.876;2.136;2023-12-20T07:13:23;14.65;;;3.92;;
61085;SDS011;46967;48.876;2.136;2023-12-20T07:15:48;10.77;;;3.63;;
61085;SDS011;46967;48.876;2.136;2023-12-20T07:18:14;6.85;;;1.73;;
61085;SDS011;46967;48.876;2.136;2023-12-20T07:20:39;9.43;;;2.05;;
61085;SDS011;46967;48.876;2.136;2023-12-20T07:23:04;11.00;;;2.15;;
61085;SDS011;46967;48.876;2.136;2023-12-20T07:25:30;12.27;;;1.60;;
61085;SDS011;46967;48.876;2.136;2023-12-20T07:27:57;6.20;;;1.40;;
61085;SDS011;46967;48.876;2.136;2023-12-20T07:30:23;7.60;;;1.23;;
61085;SDS011;46967;48.876;2.136;2023-12-20T07:32:48;11.38;;;1.67;;
61085;SDS011;46967;48.876;2.136;2023-12-20T07:35:14;8.75;;;1.95;;
61085;SDS011;46967;48.876;2.136;2023-12-20T07:37:40;6.35;;;1.90;;
61085;SDS011;46967;48.876;2.136;2023-12-20T07:40:06;9.68;;;1.60;;
61085;SDS011;46967;48.876;2.136;2023-12-20T07:42:32;8.20;;;1.55;;
61085;SDS011;46967;48.876;2.136;2023-12-20T07:44:57;6.85;;;1.60;;
61085;SDS011;46967;48.876;2.136;2023-12-20T07:47:23;7.05;;;1.75;;
61085;SDS011;46967;48.876;2.136;2023-12-20T07:49:50;8.75;;;1.77;;
61085;SDS011;46967;48.876;2.136;2023-12-20T07:52:16;5.68;;;1.77;;
61085;SDS011;46967;48.876;2.136;2023-12-20T07:54:45;5.95;;;1.70;;
61085;SDS011;46967;48.876;2.136;2023-12-20T07:57:11;11.60;;;1.95;;
61085;SDS011;46967;48.876;2.136;2023-12-20T07:59:37;8.10;;;1.38;;
61085;SDS011;46967;48.876;2.136;2023-12-20T08:02:02;12.40;;;2.22;;
61085;SDS011;46967;48.876;2.136;2023-12-20T08:04:28;11.23;;;2.50;;
61085;SDS011;46967;48.876;2.136;2023-12-20T08:06:53;6.63;;;1.90;;
61085;SDS011;46967;48.876;2.136;2023-12-20T08:09:18;5.20;;;1.20;;
61085;SDS011;46967;48.876;2.136;2023-12-20T08:11:47;12.05;;;1.83;;
61085;SDS011;46967;48.876;2.136;2023-12-20T08:14:13;12.77;;;2.20;;
61085;SDS011;46967;48.876;2.136;2023-12-20T08:16:38;11.05;;;2.08;;
61085;SDS011;46967;48.876;2.136;2023-12-20T08:19:04;13.15;;;1.88;;
61085;SDS011;46967;48.876;2.136;2023-12-20T08:21:29;9.48;;;1.98;;
61085;SDS011;46967;48.876;2.136;2023-12-20T08:23:55;7.90;;;2.28;;
61085;SDS011;46967;48.876;2.136;2023-12-20T08:26:20;13.65;;;2.33;;
61085;SDS011;46967;48.876;2.136;2023-12-20T08:28:47;9.65;;;2.25;;
61085;SDS011;46967;48.876;2.136;2023-12-20T08:31:13;12.40;;;2.10;;
61085;SDS011;46967;48.876;2.136;2023-12-20T08:33:45;13.17;;;1.90;;
61085;SDS011;46967;48.876;2.136;2023-12-20T08:38:37;9.25;;;1.55;;
61085;SDS011;46967;48.876;2.136;2023-12-20T08:41:03;12.85;;;2.17;;
61085;SDS011;46967;48.876;2.136;2023-12-20T08:43:30;8.65;;;1.73;;
61085;SDS011;46967;48.876;2.136;2023-12-20T08:45:56;10.02;;;1.67;;
61085;SDS011;46967;48.876;2.136;2023-12-20T08:48:21;16.65;;;2.08;;
61085;SDS011;46967;48.876;2.136;2023-12-20T08:50:46;8.50;;;1.60;;
61085;SDS011;46967;48.876;2.136;2023-12-20T08:53:13;13.90;;;2.70;;
61085;SDS011;46967;48.876;2.136;2023-12-20T08:55:40;15.70;;;2.20;;
61085;SDS011;46967;48.876;2.136;2023-12-20T08:58:06;9.82;;;2.38;;
61085;SDS011;46967;48.876;2.136;2023-12-20T09:00:33;13.07;;;2.00;;
61085;SDS011;46967;48.876;2.136;2023-12-20T09:02:58;8.00;;;1.90;;
61085;SDS011;46967;48.876;2.136;2023-12-20T09:05:24;11.07;;;2.35;;
61085;SDS011;46967;48.876;2.136;2023-12-20T09:07:50;7.35;;;1.67;;
61085;SDS011;46967;48.876;2.136;2023-12-20T09:10:15;9.38;;;1.73;;
61085;SDS011;46967;48.876;2.136;2023-12-20T09:12:40;12.13;;;1.98;;
61085;SDS011;46967;48.876;2.136;2023-12-20T09:15:07;14.02;;;2.17;;
61085;SDS011;46967;48.876;2.136;2023-12-20T09:17:33;6.43;;;1.83;;
61085;SDS011;46967;48.876;2.136;2023-12-20T09:19:58;12.10;;;2.33;;
61085;SDS011;46967;48.876;2.136;2023-12-20T09:22:25;8.50;;;2.25;;
61085;SDS011;46967;48.876;2.136;2023-12-20T09:24:50;10.30;;;1.95;;
61085;SDS011;46967;48.876;2.136;2023-12-20T09:27:15;13.32;;;1.95;;
61085;SDS011;46967;48.876;2.136;2023-12-20T09:29:41;16.52;;;2.50;;
61085;SDS011;46967;48.876;2.136;2023-12-20T09:32:06;12.85;;;2.20;;
61085;SDS011;46967;48.876;2.136;2023-12-20T09:34:31;11.80;;;2.25;;
61085;SDS011;46967;48.876;2.136;2023-12-20T09:36:57;11.88;;;2.63;;
61085;SDS011;46967;48.876;2.136;2023-12-20T09:39:22;13.32;;;2.10;;
61085;SDS011;46967;48.876;2.136;2023-12-20T09:42:01;9.68;;;2.15;;
61085;SDS011;46967;48.876;2.136;2023-12-20T09:44:28;12.95;;;2.45;;
61085;SDS011;46967;48.876;2.136;2023-12-20T09:46:54;12.40;;;2.33;;
61085;SDS011;46967;48.876;2.136;2023-12-20T09:49:20;8.20;;;1.70;;
61085;SDS011;46967;48.876;2.136;2023-12-20T09:51:46;8.27;;;1.75;;
61085;SDS011;46967;48.876;2.136;2023-12-20T09:54:16;10.57;;;2.78;;
61085;SDS011;46967;48.876;2.136;2023-12-20T09:56:42;14.23;;;2.50;;
61085;SDS011;46967;48.876;2.136;2023-12-20T09:59:07;12.65;;;2.13;;
61085;SDS011;46967;48.876;2.136;2023-12-20T10:01:33;6.32;;;2.05;;
61085;SDS011;46967;48.876;2.136;2023-12-20T10:04:00;9.93;;;2.63;;
61085;SDS011;46967;48.876;2.136;2023-12-20T10:06:27;15.18;;;2.28;;
61085;SDS011;46967;48.876;2.136;2023-12-20T10:08:53;11.93;;;2.28;;
61085;SDS011;46967;48.876;2.136;2023-12-20T10:11:18;12.57;;;2.15;;
61085;SDS011;46967;48.876;2.136;2023-12-20T10:13:44;11.23;;;2.85;;
61085;SDS011;46967;48.876;2.136;2023-12-20T10:16:13;13.73;;;2.13;;
61085;SDS011;46967;48.876;2.136;2023-12-20T10:18:38;10.30;;;2.10;;
61085;SDS011;46967;48.876;2.136;2023-12-20T10:21:04;12.00;;;2.30;;
61085;SDS011;46967;48.876;2.136;2023-12-20T10:23:29;10.48;;;2.28;;
61085;SDS011;46967;48.876;2.136;2023-12-20T10:25:56;9.95;;;1.92;;
61085;SDS011;46967;48.876;2.136;2023-12-20T10:28:23;10.10;;;1.98;;
61085;SDS011;46967;48.876;2.136;2023-12-20T10:30:52;10.55;;;1.90;;
61085;SDS011;46967;48.876;2.136;2023-12-20T10:33:24;13.45;;;2.30;;
61085;SDS011;46967;48.876;2.136;2023-12-20T10:35:51;11.32;;;2.10;;
61085;SDS011;46967;48.876;2.136;2023-12-20T10:38:17;14.82;;;2.40;;
61085;SDS011;46967;48.876;2.136;2023-12-20T10:40:42;9.27;;;1.73;;
61085;SDS011;46967;48.876;2.136;2023-12-20T10:43:10;11.32;;;2.10;;
61085;SDS011;46967;48.876;2.136;2023-12-20T10:45:36;13.05;;;2.10;;
61085;SDS011;46967;48.876;2.136;2023-12-20T10:48:02;9.30;;;2.45;;
61085;SDS011;46967;48.876;2.136;2023-12-20T10:50:28;9.82;;;2.30;;
61085;SDS011;46967;48.876;2.136;2023-12-20T10:52:54;10.23;;;2.15;;
61085;SDS011;46967;48.876;2.136;2023-12-20T10:55:23;11.10;;;2.40;;
61085;SDS011;46967;48.876;2.136;2023-12-20T10:57:50;10.25;;;2.15;;
61085;SDS011;46967;48.876;2.136;2023-12-20T11:00:17;10.25;;;2.25;;
61085;SDS011;46967;48.876;2.136;2023-12-20T11:02:43;8.32;;;1.77;;
61085;SDS011;46967;48.876;2.136;2023-12-20T11:08:22;10.73;;;2.28;;
61085;SDS011;46967;48.876;2.136;2023-12-20T11:13:59;8.82;;;2.00;;
61085;SDS011;46967;48.876;2.136;2023-12-20T11:16:30;12.25;;;2.25;;
61085;SDS011;46967;48.876;2.136;2023-12-20T11:18:56;9.77;;;2.38;;
61085;SDS011;46967;48.876;2.136;2023-12-20T11:21:22;9.73;;;1.90;;
61085;SDS011;46967;48.876;2.136;2023-12-20T11:23:47;15.77;;;2.63;;
61085;SDS011;46967;48.876;2.136;2023-12-20T11:26:15;14.18;;;2.42;;
61085;SDS011;46967;48.876;2.136;2023-12-20T11:28:41;11.88;;;1.80;;
61085;SDS011;46967;48.876;2.136;2023-12-20T11:31:07;8.32;;;2.38;;
61085;SDS011;46967;48.876;2.136;2023-12-20T11:33:37;15.48;;;2.22;;
61085;SDS011;46967;48.876;2.136;2023-12-20T11:36:06;10.40;;;2.00;;
61085;SDS011;46967;48.876;2.136;2023-12-20T11:38:38;14.52;;;2.22;;
61085;SDS011;46967;48.876;2.136;2023-12-20T11:41:14;12.52;;;2.38;;
61085;SDS011;46967;48.876;2.136;2023-12-20T11:43:40;12.05;;;1.98;;
61085;SDS011;46967;48.876;2.136;2023-12-20T11:46:06;15.65;;;2.58;;
61085;SDS011;46967;48.876;2.136;2023-12-20T11:48:34;12.35;;;2.60;;
61085;SDS011;46967;48.876;2.136;2023-12-20T11:51:01;9.98;;;2.15;;
61085;SDS011;46967;48.876;2.136;2023-12-20T11:53:28;21.17;;;2.60;;
61085;SDS011;46967;48.876;2.136;2023-12-20T11:55:55;10.73;;;2.13;;
61085;SDS011;46967;48.876;2.136;2023-12-20T11:58:21;11.48;;;2.60;;
61085;SDS011;46967;48.876;2.136;2023-12-20T12:00:49;9.43;;;1.88;;
61085;SDS011;46967;48.876;2.136;2023-12-20T12:03:15;9.73;;;2.03;;
61085;SDS011;46967;48.876;2.136;2023-12-20T12:05:41;10.18;;;2.20;;
61085;SDS011;46967;48.876;2.136;2023-12-20T12:08:06;8.57;;;2.35;;
61085;SDS011;46967;48.876;2.136;2023-12-20T12:10:32;15.77;;;2.42;;
61085;SDS011;46967;48.876;2.136;2023-12-20T12:12:58;7.03;;;2.00;;
61085;SDS011;46967;48.876;2.136;2023-12-20T12:15:23;13.70;;;2.05;;
61085;SDS011;46967;48.876;2.136;2023-12-20T12:17:53;13.48;;;2.13;;
61085;SDS011;46967;48.876;2.136;2023-12-20T12:20:21;13.30;;;2.38;;
61085;SDS011;46967;48.876;2.136;2023-12-20T12:23:00;15.30;;;2.92;;
61085;SDS011;46967;48.876;2.136;2023-12-20T12:25:31;10.65;;;1.70;;
61085;SDS011;46967;48.876;2.136;2023-12-20T12:28:00;10.35;;;2.13;;
61085;SDS011;46967;48.876;2.136;2023-12-20T12:30:26;12.90;;;2.40;;
61085;SDS011;46967;48.876;2.136;2023-12-20T12:32:52;15.65;;;2.80;;
61085;SDS011;46967;48.876;2.136;2023-12-20T12:35:18;13.90;;;2.40;;
61085;SDS011;46967;48.876;2.136;2023-12-20T12:37:44;13.15;;;2.67;;
61085;SDS011;46967;48.876;2.136;2023-12-20T12:40:10;10.90;;;2.92;;
61085;SDS011;46967;48.876;2.136;2023-12-20T12:42:36;14.32;;;2.95;;
61085;SDS011;46967;48.876;2.136;2023-12-20T12:45:03;14.98;;;2.63;;
61085;SDS011;46967;48.876;2.136;2023-12-20T12:47:29;12.05;;;2.25;;
61085;SDS011;46967;48.876;2.136;2023-12-20T12:49:55;10.85;;;2.35;;
61085;SDS011;46967;48.876;2.136;2023-12-20T12:52:20;9.65;;;1.90;;
61085;SDS011;46967;48.876;2.136;2023-12-20T12:54:46;10.23;;;2.88;;
61085;SDS011;46967;48.876;2.136;2023-12-20T12:57:12;13.73;;;2.40;;
61085;SDS011;46967;48.876;2.136;2023-12-20T12:59:38;13.32;;;1.90;;
61085;SDS011;46967;48.876;2.136;2023-12-20T13:02:03;11.35;;;2.67;;
61085;SDS011;46967;48.876;2.136;2023-12-20T13:04:29;11.57;;;1.90;;
61085;SDS011;46967;48.876;2.136;2023-12-20T13:06:54;14.55;;;2.90;;
61085;SDS011;46967;48.876;2.136;2023-12-20T13:09:20;13.63;;;2.83;;
61085;SDS011;46967;48.876;2.136;2023-12-20T13:11:45;11.95;;;2.60;;
61085;SDS011;46967;48.876;2.136;2023-12-20T13:14:11;14.18;;;3.10;;
61085;SDS011;46967;48.876;2.136;2023-12-20T13:16:40;16.40;;;2.30;;
61085;SDS011;46967;48.876;2.136;2023-12-20T13:19:06;12.15;;;1.85;;
61085;SDS011;46967;48.876;2.136;2023-12-20T13:21:32;7.38;;;2.15;;
61085;SDS011;46967;48.876;2.136;2023-12-20T13:23:57;9.70;;;2.28;;
61085;SDS011;46967;48.876;2.136;2023-12-20T13:26:22;11.02;;;2.00;;
61085;SDS011;46967;48.876;2.136;2023-12-20T13:28:48;9.98;;;2.03;;
61085;SDS011;46967;48.876;2.136;2023-12-20T13:31:13;10.68;;;2.00;;
61085;SDS011;46967;48.876;2.136;2023-12-20T13:33:38;11.63;;;1.73;;
61085;SDS011;46967;48.876;2.136;2023-12-20T13:36:05;9.10;;;1.60;;
61085;SDS011;46967;48.876;2.136;2023-12-20T13:38:31;6.90;;;1.13;;
61085;SDS011;46967;48.876;2.136;2023-12-20T13:40:56;6.57;;;1.30;;
61085;SDS011;46967;48.876;2.136;2023-12-20T13:43:23;11.25;;;1.70;;
61085;SDS011;46967;48.876;2.136;2023-12-20T13:45:49;10.55;;;1.52;;
61085;SDS011;46967;48.876;2.136;2023-12-20T13:48:15;4.10;;;1.38;;
61085;SDS011;46967;48.876;2.136;2023-12-20T13:50:40;8.00;;;1.33;;
61085;SDS011;46967;48.876;2.136;2023-12-20T13:53:05;6.00;;;1.50;;
61085;SDS011;46967;48.876;2.136;2023-12-20T13:55:31;10.10;;;1.98;;
61085;SDS011;46967;48.876;2.136;2023-12-20T13:57:56;8.90;;;1.60;;
61085;SDS011;46967;48.876;2.136;2023-12-20T14:00:22;7.03;;;1.35;;
61085;SDS011;46967;48.876;2.136;2023-12-20T14:02:48;5.40;;;1.15;;
61085;SDS011;46967;48.876;2.136;2023-12-20T14:05:14;8.30;;;0.90;;
61085;SDS011;46967;48.876;2.136;2023-12-20T14:07:42;9.55;;;1.35;;
61085;SDS011;46967;48.876;2.136;2023-12-20T14:10:09;7.72;;;1.83;;
61085;SDS011;46967;48.876;2.136;2023-12-20T14:12:36;11.63;;;1.67;;
61085;SDS011;46967;48.876;2.136;2023-12-20T14:15:03;7.15;;;1.30;;
61085;SDS011;46967;48.876;2.136;2023-12-20T14:17:29;4.07;;;1.40;;
61085;SDS011;46967;48.876;2.136;2023-12-20T14:19:54;13.85;;;2.38;;
61085;SDS011;46967;48.876;2.136;2023-12-20T14:22:20;10.07;;;1.38;;
61085;SDS011;46967;48.876;2.136;2023-12-20T14:24:45;5.90;;;1.45;;
61085;SDS011;46967;48.876;2.136;2023-12-20T14:27:11;8.40;;;2.10;;
61085;SDS011;46967;48.876;2.136;2023-12-20T14:29:36;8.25;;;1.42;;
61085;SDS011;46967;48.876;2.136;2023-12-20T14:32:02;12.77;;;2.40;;
61085;SDS011;46967;48.876;2.136;2023-12-20T14:34:28;10.20;;;1.73;;
61085;SDS011;46967;48.876;2.136;2023-12-20T14:36:54;8.63;;;2.05;;
61085;SDS011;46967;48.876;2.136;2023-12-20T14:39:19;11.85;;;1.83;;
61085;SDS011;46967;48.876;2.136;2023-12-20T14:41:44;10.48;;;1.95;;
61085;SDS011;46967;48.876;2.136;2023-12-20T14:44:10;10.95;;;1.60;;